Decoded Metar for CYKF (WATERLOO in ON, CANADA) (IATA:YKF) | Meteo·Mobile Aviation Weather
aviador You're here:

CYKF Decoded Metar

WATERLOO in ON, CANADA
Report Time2018-10-20 07:15:00
UTC Time2018-10-20 07:29:06
Flight Rules mvfr MVFR
Wind240° at 17 Gusting to 25 kt
W.Decomp.*RWY 26: 16.7 kt HW 3 kt LCW
RWY 32: 5.8 kt HW 16 kt LCW
W.Rank240° ranks 5
Current wind is above 240° avg. (9.9)
Visibility9656 m
Phenomena:Light Rain
Mist
Clouds:Overcast 011 Hf
Expected CloudBase > 800 ft AGL from Temp-Dew spread
Ceiling1,100 ft
Temp09°C (ISA -4)
Dew Point07°C (87% RH)
AAT2.2°C
QNH1002 hPa
Density Alt1,086 ft
Elevation1,040 ft
Report Wrong Elevation
Raw Report
SPECI CYKF 200715Z AUTO 24017G25KT 6SM -RA BR OVC011 09/07 A2958 RMK
SLP019=

Extra information for CYKF:More info

Metar Taf Metar & Taf Last 4 Metars F.Rules Stats Wind Profile Meteogram Temp Stats Airport Information Weather charts Add Link Nearby VenuesMetar ALERT Operation Metar Decoded Social comments